createdAt,value
2023-10-29T00:00:10.137Z,8.90
2023-10-29T00:02:38.545Z,8.90
2023-10-29T00:05:07.314Z,8.90
2023-10-29T00:07:35.342Z,8.90
2023-10-29T00:10:05.416Z,8.90
2023-10-29T00:12:33.517Z,8.90
2023-10-29T00:15:01.699Z,8.90
2023-10-29T00:17:29.751Z,8.90
2023-10-29T00:20:00.750Z,8.90
2023-10-29T00:22:29.221Z,8.90
2023-10-29T00:24:57.294Z,8.90
2023-10-29T00:27:26.736Z,8.90
2023-10-29T00:29:54.850Z,8.90
2023-10-29T00:32:22.960Z,8.90
2023-10-29T00:34:51.112Z,8.90
2023-10-29T00:37:19.472Z,8.90
2023-10-29T00:39:47.555Z,8.90
2023-10-29T00:42:15.581Z,9.10
2023-10-29T00:44:45.220Z,8.90
2023-10-29T00:47:13.958Z,8.90
2023-10-29T00:49:42.281Z,8.90
2023-10-29T00:52:10.812Z,9.00
2023-10-29T00:54:39.018Z,8.90
2023-10-29T00:57:07.583Z,8.90
2023-10-29T00:59:37.048Z,8.90
2023-10-29T01:02:07.119Z,8.90
2023-10-29T01:04:37.254Z,8.80
2023-10-29T01:07:05.703Z,8.90
2023-10-29T01:09:34.833Z,8.90
2023-10-29T01:12:03.343Z,8.90
2023-10-29T01:14:32.075Z,8.90
2023-10-29T01:17:00.245Z,8.90
2023-10-29T01:19:29.725Z,8.90
2023-10-29T01:21:58.125Z,8.90
2023-10-29T01:24:26.884Z,8.80
2023-10-29T01:26:55.328Z,8.90
2023-10-29T01:29:23.420Z,8.90
2023-10-29T01:31:51.756Z,8.90
2023-10-29T01:34:19.725Z,8.90
2023-10-29T01:36:49.156Z,8.80
2023-10-29T01:39:17.285Z,8.80
2023-10-29T01:41:45.705Z,8.80
2023-10-29T01:44:13.884Z,8.80
2023-10-29T01:46:41.915Z,8.80
2023-10-29T01:49:10.783Z,8.80
2023-10-29T01:51:38.874Z,8.80
2023-10-29T01:54:08.463Z,8.80
2023-10-29T01:56:36.627Z,8.80
2023-10-29T01:59:04.859Z,8.70
2023-10-29T02:01:33.046Z,8.80
2023-10-29T02:04:01.271Z,8.80
2023-10-29T02:06:29.401Z,8.80
2023-10-29T02:08:58.036Z,8.80
2023-10-29T02:11:27.619Z,8.80
2023-10-29T02:13:56.207Z,8.80
2023-10-29T02:16:24.440Z,8.80
2023-10-29T02:18:52.508Z,8.80
2023-10-29T02:21:21.626Z,8.70
2023-10-29T02:23:51.059Z,8.80
2023-10-29T02:26:19.573Z,8.80
2023-10-29T02:28:47.587Z,8.80
2023-10-29T02:31:19.201Z,8.80
2023-10-29T02:33:48.928Z,8.80
2023-10-29T02:36:17.054Z,8.80
2023-10-29T02:38:45.099Z,8.80
2023-10-29T02:41:14.692Z,8.80
2023-10-29T02:43:42.880Z,8.80
2023-10-29T02:46:11.967Z,8.70
2023-10-29T02:48:40.503Z,8.70
2023-10-29T02:51:12.732Z,8.80
2023-10-29T02:53:41.161Z,8.80
2023-10-29T02:56:09.324Z,8.80
2023-10-29T02:58:38.691Z,8.80
2023-10-29T03:01:08.570Z,8.80
2023-10-29T03:03:37.080Z,8.70
2023-10-29T03:06:06.583Z,8.70
2023-10-29T03:08:34.862Z,8.70
2023-10-29T03:11:02.621Z,8.70
2023-10-29T03:13:31.317Z,8.70
2023-10-29T03:16:00.940Z,8.70
2023-10-29T03:18:30.731Z,8.70
2023-10-29T03:20:58.838Z,8.70
2023-10-29T03:23:26.917Z,8.70
2023-10-29T03:25:55.117Z,8.70
2023-10-29T03:28:23.125Z,8.70
2023-10-29T03:30:51.203Z,8.80
2023-10-29T03:33:20.590Z,8.80
2023-10-29T03:35:48.680Z,8.70
2023-10-29T03:38:16.721Z,8.80
2023-10-29T03:40:44.835Z,8.70
2023-10-29T03:43:12.937Z,8.70
2023-10-29T03:45:41.141Z,8.70
2023-10-29T03:48:09.236Z,8.70
2023-10-29T03:50:38.650Z,8.70
2023-10-29T03:53:06.674Z,8.70
2023-10-29T03:55:34.818Z,8.70
2023-10-29T03:58:02.891Z,8.70
2023-10-29T04:00:31.041Z,8.70
2023-10-29T04:02:59.109Z,8.70
2023-10-29T04:05:27.591Z,8.70
2023-10-29T04:07:57.065Z,8.70
2023-10-29T04:10:25.077Z,8.70
2023-10-29T04:12:53.092Z,8.80
2023-10-29T04:15:21.108Z,8.70
2023-10-29T04:17:50.890Z,8.70
2023-10-29T04:20:19.058Z,8.70
2023-10-29T04:22:47.104Z,8.70
2023-10-29T04:25:16.742Z,8.80
2023-10-29T04:27:44.763Z,8.80
2023-10-29T04:30:13.455Z,8.80
2023-10-29T04:32:41.665Z,8.80
2023-10-29T04:35:10.338Z,8.80
2023-10-29T04:37:38.551Z,8.80
2023-10-29T04:40:08.024Z,8.70
2023-10-29T04:42:37.499Z,8.70
2023-10-29T04:45:06.581Z,8.70
2023-10-29T04:47:34.631Z,8.70
2023-10-29T04:50:02.929Z,8.70
2023-10-29T04:52:31.029Z,8.70
2023-10-29T04:54:59.428Z,8.70
2023-10-29T04:57:27.485Z,8.80
2023-10-29T04:59:56.976Z,8.80
2023-10-29T05:02:25.231Z,8.70
2023-10-29T05:04:53.310Z,8.70
2023-10-29T05:07:21.535Z,8.70
2023-10-29T05:09:49.842Z,8.60
2023-10-29T05:12:18.030Z,8.70
2023-10-29T05:14:46.139Z,8.80
2023-10-29T05:17:15.574Z,8.80
2023-10-29T05:19:44.594Z,8.80
2023-10-29T05:22:12.884Z,8.80
2023-10-29T05:24:40.906Z,8.70
2023-10-29T05:27:09.031Z,8.70
2023-10-29T05:29:37.092Z,8.70
2023-10-29T05:32:05.905Z,8.60
2023-10-29T05:34:35.852Z,8.70
2023-10-29T05:37:05.232Z,8.70
2023-10-29T05:39:33.399Z,8.70
2023-10-29T05:42:01.530Z,8.70
2023-10-29T05:44:29.792Z,8.90
2023-10-29T05:46:57.879Z,8.70
2023-10-29T05:49:26.436Z,8.70
2023-10-29T05:51:55.920Z,8.70
2023-10-29T05:54:24.356Z,8.70
2023-10-29T05:56:52.476Z,8.70
2023-10-29T05:59:21.765Z,8.60
2023-10-29T06:01:49.922Z,8.70
2023-10-29T06:04:18.115Z,8.70
2023-10-29T06:06:46.175Z,8.70
2023-10-29T06:09:23.779Z,8.70
2023-10-29T06:11:54.127Z,8.70
2023-10-29T06:14:24.130Z,8.80
2023-10-29T06:17:03.500Z,8.70
2023-10-29T06:19:37.000Z,8.70
2023-10-29T06:22:06.769Z,8.80
2023-10-29T06:24:36.524Z,9.00
2023-10-29T06:27:05.337Z,8.80
2023-10-29T06:29:33.402Z,8.80
2023-10-29T06:32:01.457Z,8.90
2023-10-29T06:34:29.469Z,8.90
2023-10-29T06:36:57.682Z,8.90
2023-10-29T06:39:25.901Z,8.90
2023-10-29T06:41:55.394Z,8.90
2023-10-29T06:44:23.406Z,8.90
2023-10-29T06:46:52.489Z,9.00
2023-10-29T06:49:20.459Z,9.00
2023-10-29T06:51:49.731Z,9.00
2023-10-29T06:54:17.859Z,9.00
2023-10-29T06:56:45.888Z,9.00
2023-10-29T06:59:15.419Z,9.00
2023-10-29T07:01:43.942Z,9.00
2023-10-29T07:04:12.306Z,9.10
2023-10-29T07:06:43.360Z,9.00
2023-10-29T07:09:12.080Z,9.10
2023-10-29T07:11:40.664Z,9.20
2023-10-29T07:14:09.206Z,9.00
2023-10-29T07:16:38.970Z,8.90
2023-10-29T07:19:07.089Z,9.10
2023-10-29T07:21:36.014Z,9.00
2023-10-29T07:24:05.384Z,9.10
2023-10-29T07:26:34.371Z,9.00
2023-10-29T07:29:02.625Z,9.00
2023-10-29T07:31:31.550Z,9.10
2023-10-29T07:34:01.206Z,9.10
2023-10-29T07:36:30.409Z,9.20
2023-10-29T07:38:58.944Z,9.10
2023-10-29T07:41:27.012Z,9.10
2023-10-29T07:43:55.202Z,9.10
2023-10-29T07:46:23.203Z,9.20
2023-10-29T07:48:51.270Z,9.20
2023-10-29T07:51:20.694Z,9.20
2023-10-29T07:53:48.700Z,9.20
2023-10-29T07:56:16.925Z,9.20
2023-10-29T07:58:45.350Z,9.30
2023-10-29T08:01:14.390Z,9.40
2023-10-29T08:03:42.628Z,9.30
2023-10-29T08:06:11.062Z,9.20
2023-10-29T08:08:41.069Z,9.40
2023-10-29T08:11:18.484Z,9.40
2023-10-29T08:13:46.822Z,9.40
2023-10-29T08:16:15.692Z,9.40
2023-10-29T08:18:44.154Z,9.40
2023-10-29T08:21:12.542Z,9.40
2023-10-29T08:23:41.966Z,9.40
2023-10-29T08:26:10.287Z,9.60
2023-10-29T08:28:38.336Z,9.40
2023-10-29T08:31:06.419Z,9.30
2023-10-29T08:33:34.691Z,9.50
2023-10-29T08:36:02.797Z,9.50
2023-10-29T08:38:30.923Z,9.50
2023-10-29T08:41:00.428Z,9.50
2023-10-29T08:43:30.350Z,9.60
2023-10-29T08:45:59.887Z,9.60
2023-10-29T08:48:27.993Z,9.60
2023-10-29T08:50:56.435Z,9.60
2023-10-29T08:53:24.582Z,9.70
2023-10-29T08:55:52.896Z,9.70
2023-10-29T08:58:22.970Z,9.70
2023-10-29T09:00:52.485Z,9.70
2023-10-29T09:03:20.797Z,9.80
2023-10-29T09:05:49.334Z,9.80
2023-10-29T09:08:17.461Z,9.80
2023-10-29T09:10:46.750Z,9.80
2023-10-29T09:13:14.755Z,9.90
2023-10-29T09:15:44.485Z,9.90
2023-10-29T09:18:12.678Z,9.90
2023-10-29T09:20:41.096Z,9.90
2023-10-29T09:23:09.340Z,10.20
2023-10-29T09:25:37.424Z,10.10
2023-10-29T09:28:06.953Z,10.30
2023-10-29T09:30:35.001Z,10.10
2023-10-29T09:33:04.627Z,10.20
2023-10-29T09:35:33.400Z,10.20
2023-10-29T09:38:01.581Z,10.20
2023-10-29T09:40:29.632Z,10.30
2023-10-29T09:42:58.128Z,10.30
2023-10-29T09:45:28.274Z,10.30
2023-10-29T09:47:57.342Z,10.30
2023-10-29T09:50:27.434Z,10.30
2023-10-29T09:52:55.999Z,10.30
2023-10-29T09:55:24.831Z,10.40
2023-10-29T09:57:53.216Z,10.40
2023-10-29T10:00:21.401Z,10.50
2023-10-29T10:02:54.333Z,10.50
2023-10-29T10:05:24.002Z,10.60
2023-10-29T10:07:54.234Z,10.60
2023-10-29T10:10:23.013Z,10.60
2023-10-29T10:12:52.472Z,10.60
2023-10-29T10:15:22.030Z,10.60
2023-10-29T10:17:58.622Z,10.70
2023-10-29T10:20:27.340Z,10.70
2023-10-29T10:23:01.292Z,10.70
2023-10-29T10:25:30.533Z,10.70
2023-10-29T10:27:59.622Z,10.70
2023-10-29T10:30:29.435Z,10.80
2023-10-29T10:33:10.687Z,10.80
2023-10-29T10:35:46.702Z,10.80
2023-10-29T10:38:17.691Z,10.90
2023-10-29T10:40:45.927Z,10.80
2023-10-29T10:43:21.004Z,11.00
2023-10-29T10:45:52.256Z,10.90
2023-10-29T10:48:20.649Z,10.90
2023-10-29T10:50:49.288Z,10.90
2023-10-29T10:53:21.508Z,11.00
2023-10-29T10:56:03.206Z,10.90
2023-10-29T10:58:35.815Z,10.90
2023-10-29T11:01:07.508Z,10.90
2023-10-29T11:03:36.375Z,10.90
2023-10-29T11:06:05.221Z,11.00
2023-10-29T11:08:34.856Z,11.00
2023-10-29T11:11:03.246Z,11.00
2023-10-29T11:13:31.670Z,11.10
2023-10-29T11:15:59.904Z,11.30
2023-10-29T11:18:31.317Z,11.10
2023-10-29T11:21:01.788Z,11.20
2023-10-29T11:23:31.468Z,11.20
2023-10-29T11:26:28.612Z,11.30
2023-10-29T11:28:57.117Z,11.50
2023-10-29T11:31:27.390Z,11.50
2023-10-29T11:34:31.774Z,11.60
2023-10-29T11:36:59.950Z,11.60
2023-10-29T11:39:34.574Z,11.60
2023-10-29T11:42:28.337Z,11.70
2023-10-29T11:45:33.768Z,11.50
2023-10-29T11:48:18.499Z,11.60
2023-10-29T11:51:22.452Z,11.60
2023-10-29T11:53:50.648Z,11.70
2023-10-29T11:56:20.560Z,11.70
2023-10-29T11:59:06.096Z,11.90
2023-10-29T12:01:34.352Z,11.70
2023-10-29T12:04:02.483Z,11.70
2023-10-29T12:06:41.278Z,11.70
2023-10-29T12:09:22.982Z,11.70
2023-10-29T12:11:53.621Z,11.70
2023-10-29T12:14:43.532Z,11.80
2023-10-29T12:17:12.367Z,11.60
2023-10-29T12:19:42.888Z,11.60
2023-10-29T12:22:18.462Z,11.60
2023-10-29T12:24:48.184Z,11.60
2023-10-29T12:27:16.938Z,11.50
2023-10-29T12:29:46.460Z,11.50
2023-10-29T12:32:18.612Z,11.50
2023-10-29T12:34:50.864Z,11.50
2023-10-29T12:37:27.063Z,11.40
2023-10-29T12:39:57.814Z,11.50
2023-10-29T12:42:53.313Z,11.40
2023-10-29T12:45:29.764Z,11.50
2023-10-29T12:48:11.771Z,11.50
2023-10-29T12:50:47.709Z,11.40
2023-10-29T12:53:23.012Z,11.40
2023-10-29T12:55:51.743Z,11.40
2023-10-29T12:58:20.088Z,11.40
2023-10-29T13:00:49.832Z,11.40
2023-10-29T13:03:18.009Z,11.50
2023-10-29T13:05:46.059Z,11.50
2023-10-29T13:08:15.567Z,11.40
2023-10-29T13:10:47.175Z,11.50
2023-10-29T13:13:16.890Z,11.50
2023-10-29T13:15:45.041Z,11.50
2023-10-29T13:18:15.980Z,11.50
2023-10-29T13:20:44.138Z,11.50
2023-10-29T13:23:12.253Z,11.50
2023-10-29T13:25:40.543Z,11.60
2023-10-29T13:28:08.851Z,11.60
2023-10-29T13:30:37.158Z,11.60
2023-10-29T13:33:05.444Z,11.60
2023-10-29T13:35:39.540Z,11.50
2023-10-29T13:38:09.676Z,11.60
2023-10-29T13:40:39.309Z,11.60
2023-10-29T13:43:07.561Z,11.60
2023-10-29T13:45:35.677Z,11.60
2023-10-29T13:48:05.816Z,11.60
2023-10-29T13:50:38.686Z,11.60
2023-10-29T13:53:07.157Z,11.50
2023-10-29T13:55:35.482Z,11.60
2023-10-29T13:58:03.995Z,11.50
2023-10-29T14:00:32.483Z,11.50
2023-10-29T14:03:00.583Z,11.60
2023-10-29T14:05:29.035Z,11.50
2023-10-29T14:08:00.765Z,11.60
2023-10-29T14:10:29.034Z,11.60
2023-10-29T14:12:57.249Z,11.70
2023-10-29T14:15:25.384Z,11.70
2023-10-29T14:17:54.650Z,11.60
2023-10-29T14:20:23.319Z,11.70
2023-10-29T14:22:51.444Z,11.70
2023-10-29T14:25:21.136Z,11.70
2023-10-29T14:27:49.178Z,11.70
2023-10-29T14:30:17.447Z,11.70
2023-10-29T14:32:45.862Z,11.70
2023-10-29T14:35:14.045Z,11.70
2023-10-29T14:37:42.175Z,11.70
2023-10-29T14:40:10.947Z,11.70
2023-10-29T14:42:40.635Z,11.70
2023-10-29T14:45:10.677Z,11.70
2023-10-29T14:47:38.810Z,11.70
2023-10-29T14:50:10.017Z,11.70
2023-10-29T14:52:38.840Z,11.70
2023-10-29T14:55:08.292Z,11.80
2023-10-29T14:57:36.611Z,11.60
2023-10-29T15:00:08.753Z,11.60
2023-10-29T15:02:36.823Z,11.70
2023-10-29T15:05:06.141Z,11.70
2023-10-29T15:07:34.721Z,11.70
2023-10-29T15:10:02.947Z,11.70
2023-10-29T15:12:31.094Z,11.70
2023-10-29T15:15:00.328Z,11.80
2023-10-29T15:17:29.764Z,11.80
2023-10-29T15:19:59.012Z,11.80
2023-10-29T15:22:27.537Z,11.80
2023-10-29T15:24:55.594Z,11.80
2023-10-29T15:27:25.521Z,11.80
2023-10-29T15:29:53.692Z,11.80
2023-10-29T15:32:21.836Z,11.90
2023-10-29T15:34:51.291Z,11.80
2023-10-29T15:37:19.562Z,11.90
2023-10-29T15:39:47.635Z,11.90
2023-10-29T15:42:15.808Z,11.90
2023-10-29T15:44:43.904Z,11.90
2023-10-29T15:47:11.905Z,11.90
2023-10-29T15:49:40.096Z,11.80
2023-10-29T15:52:09.778Z,12.00
2023-10-29T15:54:37.811Z,12.00
2023-10-29T15:57:06.567Z,12.00
2023-10-29T15:59:34.791Z,12.10
2023-10-29T16:02:02.918Z,12.10
2023-10-29T16:04:31.084Z,12.00
2023-10-29T16:06:59.384Z,12.10
2023-10-29T16:09:29.243Z,12.10
2023-10-29T16:11:57.751Z,12.00
2023-10-29T16:14:25.813Z,12.20
2023-10-29T16:16:55.756Z,12.00
2023-10-29T16:19:23.890Z,12.00
2023-10-29T16:21:52.002Z,12.20
2023-10-29T16:24:20.193Z,12.00
2023-10-29T16:26:50.934Z,12.00
2023-10-29T16:29:19.268Z,12.00
2023-10-29T16:31:47.556Z,11.90
2023-10-29T16:34:15.742Z,12.00
2023-10-29T16:36:43.824Z,12.00
2023-10-29T16:39:12.566Z,12.00
2023-10-29T16:41:40.748Z,12.00
2023-10-29T16:44:10.151Z,12.00
2023-10-29T16:46:40.552Z,12.00
2023-10-29T16:49:08.688Z,12.00
2023-10-29T16:51:36.670Z,12.00
2023-10-29T16:54:05.522Z,12.00
2023-10-29T16:56:33.775Z,12.00
2023-10-29T16:59:01.864Z,12.10
2023-10-29T17:01:31.347Z,12.10
2023-10-29T17:03:59.489Z,12.10
2023-10-29T17:06:27.733Z,12.10
2023-10-29T17:08:59.109Z,12.10
2023-10-29T17:11:27.197Z,12.00
2023-10-29T17:13:55.762Z,12.10
2023-10-29T17:16:23.959Z,12.10
2023-10-29T17:18:53.564Z,12.10
2023-10-29T17:21:22.201Z,12.30
2023-10-29T17:23:51.940Z,12.20
2023-10-29T17:26:21.232Z,12.20
2023-10-29T17:28:50.314Z,12.20
2023-10-29T17:31:19.666Z,12.30
2023-10-29T17:33:48.197Z,12.40
2023-10-29T17:36:18.511Z,12.20
2023-10-29T17:38:46.797Z,12.30
2023-10-29T17:41:16.114Z,12.20
2023-10-29T17:43:44.617Z,12.30
2023-10-29T17:46:17.244Z,12.30
2023-10-29T17:48:46.128Z,12.20
2023-10-29T17:51:14.381Z,12.20
2023-10-29T17:53:47.129Z,12.10
2023-10-29T17:56:17.614Z,12.20
2023-10-29T17:58:46.979Z,12.20
2023-10-29T18:01:15.569Z,12.20
2023-10-29T18:03:45.316Z,12.20
2023-10-29T18:06:16.569Z,12.10
2023-10-29T18:08:46.641Z,12.10
2023-10-29T18:11:15.415Z,12.10
2023-10-29T18:13:44.451Z,12.10
2023-10-29T18:16:12.882Z,12.10
2023-10-29T18:18:41.205Z,12.00
2023-10-29T18:21:09.295Z,12.00
2023-10-29T18:23:37.398Z,12.10
2023-10-29T18:26:07.014Z,12.00
2023-10-29T18:28:35.234Z,12.00
2023-10-29T18:31:06.121Z,12.10
2023-10-29T18:33:34.386Z,12.00
2023-10-29T18:36:07.838Z,12.00
2023-10-29T18:38:36.327Z,11.90
2023-10-29T18:41:11.130Z,11.90
2023-10-29T18:43:39.409Z,11.90
2023-10-29T18:46:11.296Z,11.90
2023-10-29T18:48:39.850Z,11.80
2023-10-29T18:51:08.045Z,11.70
2023-10-29T18:53:36.079Z,11.80
2023-10-29T18:56:05.803Z,11.80
2023-10-29T18:58:35.307Z,11.80
2023-10-29T19:01:12.513Z,11.80
2023-10-29T19:03:41.730Z,11.80
2023-10-29T19:06:11.124Z,11.90
2023-10-29T19:08:39.567Z,11.90
2023-10-29T19:11:07.727Z,11.90
2023-10-29T19:13:37.359Z,11.90
2023-10-29T19:16:07.425Z,11.90
2023-10-29T19:18:36.225Z,11.90
2023-10-29T19:21:04.435Z,11.90
2023-10-29T19:23:34.974Z,12.00
2023-10-29T19:26:03.575Z,11.90
2023-10-29T19:28:32.339Z,12.00
2023-10-29T19:31:21.580Z,12.10
2023-10-29T19:33:50.002Z,12.10
2023-10-29T19:36:18.072Z,12.00
2023-10-29T19:38:46.268Z,12.00
2023-10-29T19:41:14.425Z,12.00
2023-10-29T19:43:42.428Z,11.90
2023-10-29T19:46:12.155Z,12.00
2023-10-29T19:48:40.260Z,12.00
2023-10-29T19:51:09.284Z,12.00
2023-10-29T19:53:38.129Z,12.00
2023-10-29T19:56:08.147Z,12.20
2023-10-29T19:58:36.803Z,12.30
2023-10-29T20:01:06.292Z,12.40
2023-10-29T20:03:36.238Z,12.50
2023-10-29T20:06:09.375Z,12.50
2023-10-29T20:08:37.691Z,12.60
2023-10-29T20:11:09.523Z,12.60
2023-10-29T20:13:38.106Z,12.60
2023-10-29T20:16:06.945Z,12.60
2023-10-29T20:18:37.238Z,12.60
2023-10-29T20:21:06.609Z,12.60
2023-10-29T20:23:34.821Z,12.60
2023-10-29T20:26:04.517Z,12.70
2023-10-29T20:28:33.236Z,12.70
2023-10-29T20:31:01.307Z,12.70
2023-10-29T20:33:29.422Z,12.70
2023-10-29T20:35:58.984Z,12.60
2023-10-29T20:38:27.195Z,12.70
2023-10-29T20:40:55.367Z,12.70
2023-10-29T20:43:23.528Z,12.70
2023-10-29T20:45:55.498Z,12.70
2023-10-29T20:48:23.749Z,12.70
2023-10-29T20:50:52.821Z,12.70
2023-10-29T20:53:22.930Z,12.70
2023-10-29T20:55:50.944Z,12.70
2023-10-29T20:58:19.132Z,12.70
2023-10-29T21:00:49.990Z,12.70
2023-10-29T21:03:18.172Z,12.70
2023-10-29T21:05:47.003Z,12.70
2023-10-29T21:08:15.363Z,12.70
2023-10-29T21:10:44.712Z,12.70
2023-10-29T21:13:12.951Z,12.90
2023-10-29T21:15:41.615Z,12.70
2023-10-29T21:18:10.473Z,12.70
2023-10-29T21:20:38.832Z,12.80
2023-10-29T21:23:07.809Z,12.80
2023-10-29T21:25:39.472Z,12.80
2023-10-29T21:28:09.024Z,12.80
2023-10-29T21:30:38.901Z,12.90
2023-10-29T21:33:07.110Z,12.90
2023-10-29T21:35:35.838Z,12.90
2023-10-29T21:38:03.955Z,12.90
2023-10-29T21:40:34.414Z,12.90
2023-10-29T21:43:02.513Z,12.80
2023-10-29T21:45:32.375Z,12.80
2023-10-29T21:48:01.187Z,12.70
2023-10-29T21:50:29.176Z,12.70
2023-10-29T21:52:57.119Z,12.70
2023-10-29T21:55:25.164Z,12.60
2023-10-29T21:57:53.324Z,12.60
2023-10-29T22:00:21.436Z,12.60
2023-10-29T22:02:51.011Z,12.60
2023-10-29T22:05:19.118Z,12.60
2023-10-29T22:07:47.136Z,12.60
2023-10-29T22:10:15.655Z,12.60
2023-10-29T22:12:44.901Z,12.50
2023-10-29T22:15:13.027Z,12.60
2023-10-29T22:17:41.115Z,12.40
2023-10-29T22:20:11.728Z,12.30
2023-10-29T22:22:39.727Z,12.30
2023-10-29T22:25:08.549Z,12.30
2023-10-29T22:27:36.589Z,12.20
2023-10-29T22:30:07.137Z,12.20
2023-10-29T22:32:36.398Z,12.20
2023-10-29T22:35:04.661Z,12.20
2023-10-29T22:37:34.274Z,12.20
2023-10-29T22:40:02.427Z,12.20
2023-10-29T22:42:30.489Z,12.20
2023-10-29T22:44:58.688Z,12.30
2023-10-29T22:47:27.234Z,12.10
2023-10-29T22:49:55.336Z,12.10
2023-10-29T22:52:23.511Z,12.10
2023-10-29T22:54:52.958Z,12.10
2023-10-29T22:57:20.999Z,12.00
2023-10-29T22:59:52.457Z,12.00
2023-10-29T23:02:20.544Z,12.10
2023-10-29T23:04:48.700Z,12.10
2023-10-29T23:07:16.711Z,12.00
2023-10-29T23:09:44.888Z,12.10
2023-10-29T23:12:14.746Z,12.00
2023-10-29T23:14:43.116Z,12.00
2023-10-29T23:17:11.108Z,11.90
2023-10-29T23:19:39.347Z,12.00
2023-10-29T23:22:07.567Z,11.90
2023-10-29T23:24:35.826Z,11.90
2023-10-29T23:27:05.958Z,11.90
2023-10-29T23:29:35.496Z,11.90
2023-10-29T23:32:03.732Z,11.90
2023-10-29T23:34:32.253Z,11.90
2023-10-29T23:37:00.364Z,11.80
2023-10-29T23:39:29.843Z,11.90
2023-10-29T23:41:58.064Z,11.90
2023-10-29T23:44:26.265Z,11.80
2023-10-29T23:46:55.656Z,11.90
2023-10-29T23:49:24.212Z,11.80
2023-10-29T23:51:52.352Z,11.80
2023-10-29T23:54:21.342Z,11.80
2023-10-29T23:56:49.456Z,11.90
2023-10-29T23:59:17.545Z,11.90
